createdAt,value
2023-03-26T00:01:17.474Z,16.13
2023-03-26T00:03:47.164Z,14.27
2023-03-26T00:06:17.430Z,17.97
2023-03-26T00:08:45.824Z,16.73
2023-03-26T00:11:16.037Z,20.60
2023-03-26T00:13:43.982Z,19.77
2023-03-26T00:16:12.221Z,24.73
2023-03-26T00:18:40.395Z,21.93
2023-03-26T00:21:27.664Z,18.47
2023-03-26T00:24:06.742Z,11.83
2023-03-26T00:26:34.797Z,12.03
2023-03-26T00:29:03.397Z,13.83
2023-03-26T00:31:30.840Z,15.30
2023-03-26T00:33:57.849Z,13.47
2023-03-26T00:36:26.732Z,11.43
2023-03-26T00:38:54.595Z,12.93
2023-03-26T00:41:25.168Z,15.17
2023-03-26T00:43:56.485Z,21.33
2023-03-26T00:46:25.976Z,13.57
2023-03-26T00:48:53.077Z,14.40
2023-03-26T00:51:21.271Z,14.27
2023-03-26T00:53:49.620Z,14.30
2023-03-26T00:56:17.277Z,5.20
2023-03-26T00:58:44.880Z,7.67
2023-03-26T01:01:19.102Z,18.70
2023-03-26T01:04:00.722Z,12.23
2023-03-26T01:06:35.393Z,14.77
2023-03-26T01:09:06.698Z,8.20
2023-03-26T01:11:35.253Z,12.97
2023-03-26T01:14:11.072Z,12.33
2023-03-26T01:17:06.852Z,15.37
2023-03-26T01:19:54.443Z,11.80
2023-03-26T01:22:23.742Z,11.53
2023-03-26T01:24:56.735Z,15.03
2023-03-26T01:27:41.017Z,12.40
2023-03-26T01:30:37.156Z,13.03
2023-03-26T01:33:33.947Z,16.20
2023-03-26T01:36:23.507Z,14.77
2023-03-26T01:38:55.346Z,10.93
2023-03-26T01:41:44.160Z,10.00
2023-03-26T01:44:38.003Z,6.90
2023-03-26T01:47:06.486Z,8.13
2023-03-26T01:49:33.793Z,7.90
2023-03-26T01:52:00.693Z,13.37
2023-03-26T01:54:31.434Z,8.30
2023-03-26T01:57:33.182Z,13.17
2023-03-26T02:00:24.727Z,8.83
2023-03-26T02:03:17.517Z,12.97
2023-03-26T02:06:15.794Z,13.97
2023-03-26T02:08:54.040Z,7.40
2023-03-26T02:11:21.571Z,5.93
2023-03-26T02:13:51.919Z,5.47
2023-03-26T02:16:20.595Z,16.90
2023-03-26T02:18:51.414Z,14.07
2023-03-26T02:21:21.366Z,8.87
2023-03-26T02:23:57.692Z,13.60
2023-03-26T02:26:25.270Z,5.07
2023-03-26T02:28:51.954Z,6.93
2023-03-26T02:31:22.137Z,4.47
2023-03-26T02:33:49.507Z,7.27
2023-03-26T02:36:19.769Z,5.27
2023-03-26T02:38:46.909Z,8.77
2023-03-26T02:41:13.608Z,8.33
2023-03-26T02:43:40.284Z,4.90
2023-03-26T02:46:06.935Z,6.10
2023-03-26T02:48:34.775Z,6.30
2023-03-26T02:51:04.007Z,8.83
2023-03-26T02:53:30.678Z,5.50
2023-03-26T02:55:58.497Z,5.63
2023-03-26T02:58:26.406Z,5.83
2023-03-26T03:00:56.683Z,7.00
2023-03-26T03:03:27.522Z,9.80
2023-03-26T03:05:55.465Z,10.07
2023-03-26T03:08:26.264Z,9.60
2023-03-26T03:11:01.162Z,9.63
2023-03-26T03:13:28.675Z,9.10
2023-03-26T03:15:56.398Z,12.50
2023-03-26T03:18:23.210Z,4.30
2023-03-26T03:20:50.138Z,8.47
2023-03-26T03:23:17.213Z,6.43
2023-03-26T03:25:43.953Z,2.77
2023-03-26T03:28:11.620Z,4.07
2023-03-26T03:30:38.356Z,4.90
2023-03-26T03:33:06.265Z,4.07
2023-03-26T03:35:33.761Z,5.30
2023-03-26T03:38:00.665Z,8.07
2023-03-26T03:40:27.682Z,7.07
2023-03-26T03:42:54.373Z,9.83
2023-03-26T03:45:21.296Z,8.50
2023-03-26T03:47:48.091Z,12.13
2023-03-26T03:50:15.557Z,5.70
2023-03-26T03:52:42.214Z,10.07
2023-03-26T03:55:10.616Z,12.40
2023-03-26T03:57:37.353Z,15.07
2023-03-26T04:00:09.055Z,9.47
2023-03-26T04:02:35.976Z,13.60
2023-03-26T04:05:04.108Z,10.87
2023-03-26T04:07:31.290Z,9.87
2023-03-26T04:10:00.132Z,17.83
2023-03-26T04:12:28.345Z,12.37
2023-03-26T04:14:56.105Z,8.53
2023-03-26T04:17:23.256Z,15.63
2023-03-26T04:19:52.941Z,20.37
2023-03-26T04:22:19.828Z,17.37
2023-03-26T04:24:48.804Z,13.83
2023-03-26T04:27:19.692Z,14.87
2023-03-26T04:29:49.865Z,18.23
2023-03-26T04:32:26.647Z,22.23
2023-03-26T04:34:53.754Z,12.37
2023-03-26T04:37:27.713Z,14.17
2023-03-26T04:39:55.156Z,11.97
2023-03-26T04:42:22.339Z,13.77
2023-03-26T04:44:52.368Z,18.00
2023-03-26T04:47:19.325Z,21.87
2023-03-26T04:49:47.447Z,14.47
2023-03-26T04:52:15.017Z,17.93
2023-03-26T04:54:44.473Z,17.67
2023-03-26T04:57:39.270Z,14.43
2023-03-26T05:00:18.670Z,16.37
2023-03-26T05:02:45.927Z,18.60
2023-03-26T05:05:12.857Z,22.60
2023-03-26T05:07:39.553Z,18.83
2023-03-26T05:10:06.796Z,18.53
2023-03-26T05:12:33.501Z,14.20
2023-03-26T05:15:00.378Z,11.30
2023-03-26T05:17:30.824Z,18.87
2023-03-26T05:19:57.746Z,19.90
2023-03-26T05:22:24.450Z,20.90
2023-03-26T05:24:51.508Z,22.20
2023-03-26T05:27:20.253Z,16.80
2023-03-26T05:29:46.993Z,17.07
2023-03-26T05:32:13.959Z,15.17
2023-03-26T05:34:43.108Z,15.03
2023-03-26T05:37:09.741Z,17.00
2023-03-26T05:39:36.424Z,13.53
2023-03-26T05:42:03.142Z,18.77
2023-03-26T05:44:29.944Z,25.73
2023-03-26T05:46:56.659Z,21.37
2023-03-26T05:49:23.412Z,14.97
2023-03-26T05:51:50.547Z,16.90
2023-03-26T05:54:17.364Z,19.13
2023-03-26T05:56:44.093Z,23.87
2023-03-26T05:59:10.939Z,22.67
2023-03-26T06:01:38.484Z,18.73
2023-03-26T06:04:05.556Z,15.33
2023-03-26T06:06:33.292Z,21.00
2023-03-26T06:09:02.312Z,18.40
2023-03-26T06:11:31.099Z,22.80
2023-03-26T06:13:58.058Z,26.47
2023-03-26T06:16:27.473Z,23.63
2023-03-26T06:18:56.573Z,16.43
2023-03-26T06:21:25.717Z,13.83
2023-03-26T06:23:52.986Z,14.03
2023-03-26T06:26:20.781Z,20.90
2023-03-26T06:28:47.563Z,15.60
2023-03-26T06:31:14.280Z,21.77
2023-03-26T06:33:41.047Z,34.37
2023-03-26T06:36:08.102Z,29.20
2023-03-26T06:38:34.752Z,18.03
2023-03-26T06:41:06.284Z,17.73
2023-03-26T06:43:33.958Z,19.47
2023-03-26T06:46:01.442Z,20.47
2023-03-26T06:48:28.629Z,21.07
2023-03-26T06:50:55.509Z,15.27
2023-03-26T06:53:22.448Z,13.67
2023-03-26T06:55:49.216Z,16.47
2023-03-26T06:58:16.822Z,16.77
2023-03-26T07:00:43.857Z,12.67
2023-03-26T07:03:11.433Z,17.87
2023-03-26T07:05:41.134Z,19.47
2023-03-26T07:08:07.784Z,21.10
2023-03-26T07:10:34.486Z,26.70
2023-03-26T07:13:01.109Z,16.13
2023-03-26T07:15:28.938Z,12.53
2023-03-26T07:17:56.362Z,13.63
2023-03-26T07:20:23.808Z,19.27
2023-03-26T07:22:51.077Z,20.23
2023-03-26T07:25:18.568Z,16.53
2023-03-26T07:28:13.063Z,17.67
2023-03-26T07:30:43.154Z,22.33
2023-03-26T07:33:21.345Z,16.40
2023-03-26T07:36:17.965Z,19.67
2023-03-26T07:39:07.886Z,21.00
2023-03-26T07:41:50.065Z,25.63
2023-03-26T07:44:22.716Z,24.87
2023-03-26T07:46:53.284Z,21.57
2023-03-26T07:49:20.526Z,25.17
2023-03-26T07:51:48.546Z,20.17
2023-03-26T07:54:16.225Z,21.30
2023-03-26T07:57:14.343Z,16.10
2023-03-26T07:59:52.522Z,14.23
2023-03-26T08:02:31.593Z,18.00
2023-03-26T08:05:39.028Z,20.87
2023-03-26T08:08:17.378Z,18.77
2023-03-26T08:11:07.578Z,18.67
2023-03-26T08:14:03.849Z,13.40
2023-03-26T08:16:39.946Z,15.10
2023-03-26T08:19:34.766Z,19.47
2023-03-26T08:22:12.209Z,26.87
2023-03-26T08:25:03.091Z,13.60
2023-03-26T08:27:40.329Z,12.43
2023-03-26T08:30:25.378Z,13.90
2023-03-26T08:32:56.868Z,11.20
2023-03-26T08:35:25.411Z,25.43
2023-03-26T08:37:52.320Z,18.50
2023-03-26T08:40:53.535Z,15.73
2023-03-26T08:43:23.277Z,11.43
2023-03-26T08:46:12.886Z,12.20
2023-03-26T08:48:57.966Z,19.83
2023-03-26T08:51:37.369Z,15.90
2023-03-26T08:54:35.178Z,9.20
2023-03-26T08:57:39.590Z,26.47
2023-03-26T09:00:18.241Z,17.63
2023-03-26T09:03:15.437Z,20.10
2023-03-26T09:06:03.442Z,14.83
2023-03-26T09:08:54.452Z,12.10
2023-03-26T09:11:43.090Z,16.83
2023-03-26T09:14:25.113Z,17.13
2023-03-26T09:17:22.718Z,13.57
2023-03-26T09:20:14.327Z,16.70
2023-03-26T09:23:10.202Z,15.83
2023-03-26T09:25:56.577Z,16.33
2023-03-26T09:28:35.464Z,15.57
2023-03-26T09:31:11.450Z,14.03
2023-03-26T09:34:13.128Z,15.03
2023-03-26T09:36:57.622Z,28.50
2023-03-26T09:39:38.872Z,14.37
2023-03-26T09:42:23.363Z,15.30
2023-03-26T09:45:22.523Z,19.97
2023-03-26T09:48:38.843Z,19.67
2023-03-26T09:51:14.566Z,19.33
2023-03-26T09:53:56.510Z,21.40
2023-03-26T09:56:27.515Z,16.67
2023-03-26T09:59:21.600Z,16.10
2023-03-26T10:02:45.877Z,15.33
2023-03-26T10:05:16.965Z,14.63
2023-03-26T10:08:12.541Z,12.83
2023-03-26T10:11:13.332Z,15.87
2023-03-26T10:14:03.759Z,16.33
2023-03-26T10:17:06.731Z,14.47
2023-03-26T10:19:50.639Z,16.10
2023-03-26T10:23:03.909Z,12.80
2023-03-26T10:25:36.499Z,11.80
2023-03-26T10:28:16.691Z,13.23
2023-03-26T10:31:25.311Z,14.73
2023-03-26T10:34:11.016Z,7.97
2023-03-26T10:37:30.932Z,11.70
2023-03-26T10:40:17.163Z,14.63
2023-03-26T10:42:59.887Z,13.23
2023-03-26T10:45:45.287Z,9.87
2023-03-26T10:48:27.742Z,21.93
2023-03-26T10:51:13.115Z,14.77
2023-03-26T10:53:53.707Z,11.60
2023-03-26T10:56:31.084Z,14.40
2023-03-26T10:59:05.663Z,16.10
2023-03-26T11:01:42.520Z,10.33
2023-03-26T11:04:28.763Z,21.57
2023-03-26T11:07:05.381Z,13.53
2023-03-26T11:09:49.053Z,16.60
2023-03-26T11:12:56.140Z,15.30
2023-03-26T11:15:41.387Z,13.60
2023-03-26T11:18:17.093Z,17.43
2023-03-26T11:20:53.633Z,13.00
2023-03-26T11:23:42.421Z,12.07
2023-03-26T11:26:21.097Z,21.07
2023-03-26T11:29:03.813Z,12.17
2023-03-26T11:32:10.906Z,12.57
2023-03-26T11:35:08.276Z,17.23
2023-03-26T11:37:44.190Z,16.00
2023-03-26T11:40:33.540Z,14.20
2023-03-26T11:43:07.667Z,12.27
2023-03-26T11:45:39.188Z,13.43
2023-03-26T11:48:22.974Z,16.17
2023-03-26T11:50:55.838Z,20.10
2023-03-26T11:53:29.022Z,12.00
2023-03-26T11:56:20.848Z,16.67
2023-03-26T11:58:47.423Z,11.10
2023-03-26T12:01:17.245Z,12.13
2023-03-26T12:03:56.327Z,11.77
2023-03-26T12:06:27.180Z,15.00
2023-03-26T12:08:55.174Z,17.30
2023-03-26T12:11:32.183Z,14.70
2023-03-26T12:14:03.896Z,16.10
2023-03-26T12:16:30.629Z,16.57
2023-03-26T12:19:05.387Z,13.50
2023-03-26T12:21:49.814Z,11.37
2023-03-26T12:24:33.831Z,11.20
2023-03-26T12:27:24.841Z,16.40
2023-03-26T12:30:12.981Z,13.20
2023-03-26T12:32:46.432Z,11.33
2023-03-26T12:35:19.074Z,16.07
2023-03-26T12:37:47.250Z,18.87
2023-03-26T12:40:36.435Z,14.13
2023-03-26T12:44:47.214Z,9.10
2023-03-26T12:47:56.447Z,15.57
2023-03-26T12:49:11.909Z,15.50
2023-03-26T12:51:58.955Z,9.33
2023-03-26T12:54:45.626Z,10.97
2023-03-26T12:57:24.810Z,13.57
2023-03-26T13:00:15.115Z,11.23
2023-03-26T13:03:01.059Z,13.07
2023-03-26T13:05:51.208Z,13.37
2023-03-26T13:08:29.395Z,8.73
2023-03-26T13:11:02.594Z,11.63
2023-03-26T13:13:52.786Z,8.97
2023-03-26T13:16:37.394Z,9.90
2023-03-26T13:19:13.337Z,14.03
2023-03-26T13:22:08.582Z,10.30
2023-03-26T13:25:16.775Z,12.47
2023-03-26T13:28:01.574Z,16.00
2023-03-26T13:30:40.459Z,12.00
2023-03-26T13:33:07.055Z,11.67
2023-03-26T13:35:39.150Z,12.23
2023-03-26T13:38:15.356Z,8.83
2023-03-26T13:41:25.804Z,13.67
2023-03-26T13:44:23.664Z,8.07
2023-03-26T13:46:59.387Z,5.57
2023-03-26T13:49:41.731Z,11.10
2023-03-26T13:52:14.303Z,9.87
2023-03-26T13:55:02.628Z,7.10
2023-03-26T13:57:43.078Z,14.37
2023-03-26T14:00:21.804Z,12.30
2023-03-26T14:03:03.889Z,10.93
2023-03-26T14:05:39.364Z,12.20
2023-03-26T14:08:19.818Z,7.90
2023-03-26T14:10:55.701Z,8.83
2023-03-26T14:13:36.796Z,6.00
2023-03-26T14:16:22.946Z,6.63
2023-03-26T14:18:58.339Z,8.40
2023-03-26T14:21:37.236Z,7.07
2023-03-26T14:24:45.611Z,6.60
2023-03-26T14:27:32.285Z,7.57
2023-03-26T14:30:17.799Z,7.47
2023-03-26T14:33:27.157Z,8.00
2023-03-26T14:36:09.965Z,8.47
2023-03-26T14:38:52.214Z,7.67
2023-03-26T14:41:48.752Z,4.30
2023-03-26T14:44:24.676Z,8.23
2023-03-26T14:47:10.273Z,10.33
2023-03-26T14:50:20.231Z,3.87
2023-03-26T14:52:47.951Z,7.93
2023-03-26T14:55:49.842Z,7.60
2023-03-26T14:58:27.878Z,7.00
2023-03-26T15:01:40.158Z,5.07
2023-03-26T15:04:43.739Z,4.60
2023-03-26T15:07:37.944Z,3.13
2023-03-26T15:10:14.243Z,8.43
2023-03-26T15:12:47.304Z,6.13
2023-03-26T15:15:55.475Z,4.23
2023-03-26T15:18:48.846Z,9.07
2023-03-26T15:22:07.199Z,2.70
2023-03-26T15:25:01.784Z,7.50
2023-03-26T15:27:30.985Z,6.73
2023-03-26T15:30:00.638Z,4.97
2023-03-26T15:32:44.447Z,7.17
2023-03-26T15:35:50.673Z,9.40
2023-03-26T15:39:04.868Z,4.50
2023-03-26T15:41:49.685Z,5.40
2023-03-26T15:44:52.862Z,5.87
2023-03-26T15:47:32.776Z,4.00
2023-03-26T15:50:20.729Z,7.10
2023-03-26T15:53:11.823Z,1.77
2023-03-26T15:55:56.384Z,8.03
2023-03-26T15:58:44.144Z,4.97
2023-03-26T16:01:35.533Z,1.70
2023-03-26T16:04:14.500Z,5.23
2023-03-26T16:07:09.465Z,6.53
2023-03-26T16:09:45.578Z,4.60
2023-03-26T16:12:12.107Z,4.33
2023-03-26T16:14:45.200Z,2.20
2023-03-26T16:17:17.458Z,3.87
2023-03-26T16:20:19.828Z,2.17
2023-03-26T16:23:01.643Z,6.37
2023-03-26T16:25:33.214Z,5.73
2023-03-26T16:28:22.422Z,2.10
2023-03-26T16:31:10.635Z,5.20
2023-03-26T16:33:57.424Z,2.53
2023-03-26T16:36:34.384Z,6.97
2023-03-26T16:39:04.759Z,5.13
2023-03-26T16:41:33.945Z,5.63
2023-03-26T16:44:13.856Z,6.30
2023-03-26T16:46:52.864Z,4.20
2023-03-26T16:49:35.186Z,1.50
2023-03-26T16:52:42.744Z,6.07
2023-03-26T16:55:25.530Z,1.50
2023-03-26T16:58:27.985Z,2.93
2023-03-26T17:01:00.586Z,1.67
2023-03-26T17:03:58.797Z,3.57
2023-03-26T17:06:45.742Z,1.97
2023-03-26T17:09:34.371Z,3.40
2023-03-26T17:12:18.632Z,1.73
2023-03-26T17:14:54.517Z,5.37
2023-03-26T17:18:06.036Z,1.20
2023-03-26T17:20:42.661Z,0.93
2023-03-26T17:23:44.201Z,5.87
2023-03-26T17:26:24.000Z,3.47
2023-03-26T17:29:28.277Z,1.53
2023-03-26T17:32:12.209Z,3.20
2023-03-26T17:34:39.113Z,2.67
2023-03-26T17:37:11.827Z,3.17
2023-03-26T17:39:43.476Z,2.20
2023-03-26T17:42:16.253Z,1.80
2023-03-26T17:45:03.552Z,2.30
2023-03-26T17:47:52.747Z,1.73
2023-03-26T17:50:44.068Z,3.47
2023-03-26T17:53:19.622Z,1.50
2023-03-26T17:55:50.120Z,1.33
2023-03-26T17:58:30.009Z,2.83
2023-03-26T18:01:32.233Z,3.97
2023-03-26T18:04:02.937Z,2.83
2023-03-26T18:06:32.496Z,3.50
2023-03-26T18:09:13.244Z,4.20
2023-03-26T18:11:50.944Z,2.10
2023-03-26T18:14:39.409Z,1.93
2023-03-26T18:17:07.002Z,1.80
2023-03-26T18:19:54.557Z,2.57
2023-03-26T18:22:27.708Z,6.40
2023-03-26T18:25:00.209Z,3.33
2023-03-26T18:27:36.593Z,2.60
2023-03-26T18:30:14.424Z,9.33
2023-03-26T18:32:52.354Z,5.33
2023-03-26T18:35:21.615Z,3.03
2023-03-26T18:37:52.017Z,3.23
2023-03-26T18:40:24.003Z,5.07
2023-03-26T18:42:57.766Z,6.23
2023-03-26T18:45:36.464Z,4.53
2023-03-26T18:48:10.353Z,3.57
2023-03-26T18:50:40.484Z,4.57
2023-03-26T18:53:20.797Z,5.33
2023-03-26T18:55:50.493Z,1.60
2023-03-26T18:58:34.342Z,4.57
2023-03-26T19:01:04.746Z,5.13
2023-03-26T19:03:36.014Z,2.40
2023-03-26T19:06:04.734Z,3.40
2023-03-26T19:08:32.760Z,3.67
2023-03-26T19:11:04.884Z,1.73
2023-03-26T19:13:33.627Z,2.67
2023-03-26T19:16:05.153Z,5.03
2023-03-26T19:18:31.979Z,1.27
2023-03-26T19:21:02.168Z,8.13
2023-03-26T19:23:41.156Z,1.70
2023-03-26T19:26:11.965Z,7.23
2023-03-26T19:28:43.170Z,11.03
2023-03-26T19:31:19.707Z,6.47
2023-03-26T19:33:55.155Z,4.80
2023-03-26T19:36:25.502Z,3.17
2023-03-26T19:38:55.047Z,6.17
2023-03-26T19:41:37.069Z,2.60
2023-03-26T19:44:16.678Z,3.97
2023-03-26T19:46:54.014Z,6.63
2023-03-26T19:49:32.552Z,1.90
2023-03-26T19:52:26.813Z,3.87
2023-03-26T19:54:59.307Z,3.63
2023-03-26T19:57:32.585Z,2.60
2023-03-26T19:59:59.638Z,5.50
2023-03-26T20:02:27.487Z,2.80
2023-03-26T20:04:54.235Z,7.23
2023-03-26T20:07:35.558Z,3.03
2023-03-26T20:10:05.534Z,5.30
2023-03-26T20:12:32.913Z,20.63
2023-03-26T20:15:00.901Z,5.60
2023-03-26T20:17:30.823Z,2.50
2023-03-26T20:19:57.910Z,3.47
2023-03-26T20:22:24.604Z,4.70
2023-03-26T20:24:51.684Z,5.47
2023-03-26T20:27:19.280Z,6.97
2023-03-26T20:29:46.610Z,8.97
2023-03-26T20:32:26.402Z,3.10
2023-03-26T20:34:54.129Z,6.73
2023-03-26T20:37:20.823Z,6.67
2023-03-26T20:39:47.508Z,6.67
2023-03-26T20:42:17.110Z,4.47
2023-03-26T20:44:43.793Z,6.97
2023-03-26T20:47:11.461Z,7.40
2023-03-26T20:49:38.915Z,2.70
2023-03-26T20:52:05.905Z,5.13
2023-03-26T20:54:32.632Z,6.50
2023-03-26T20:56:59.512Z,7.13
2023-03-26T20:59:27.672Z,4.00
2023-03-26T21:01:56.726Z,4.73
2023-03-26T21:04:24.930Z,5.40
2023-03-26T21:06:53.410Z,4.60
2023-03-26T21:09:25.628Z,8.77
2023-03-26T21:12:09.688Z,5.13
2023-03-26T21:14:41.120Z,4.10
2023-03-26T21:17:17.252Z,4.63
2023-03-26T21:19:45.133Z,3.67
2023-03-26T21:22:46.324Z,4.73
2023-03-26T21:25:20.072Z,10.57
2023-03-26T21:27:55.409Z,10.87
2023-03-26T21:30:23.703Z,4.57
2023-03-26T21:32:51.371Z,5.00
2023-03-26T21:35:18.774Z,7.47
2023-03-26T21:37:48.601Z,4.27
2023-03-26T21:40:17.961Z,2.40
2023-03-26T21:42:48.076Z,3.67
2023-03-26T21:45:15.736Z,9.70
2023-03-26T21:47:43.200Z,4.00
2023-03-26T21:50:13.373Z,4.23
2023-03-26T21:52:47.072Z,3.40
2023-03-26T21:55:18.755Z,5.30
2023-03-26T21:58:12.496Z,10.10
2023-03-26T22:01:09.964Z,4.50
2023-03-26T22:04:02.071Z,3.93
2023-03-26T22:06:45.954Z,2.80
2023-03-26T22:09:13.937Z,3.60
2023-03-26T22:11:43.531Z,1.40
2023-03-26T22:14:13.160Z,4.27
2023-03-26T22:16:41.547Z,1.93
2023-03-26T22:19:08.704Z,8.60
2023-03-26T22:21:35.916Z,3.70
2023-03-26T22:24:04.151Z,3.67
2023-03-26T22:26:31.395Z,2.03
2023-03-26T22:28:58.326Z,7.70
2023-03-26T22:31:26.495Z,3.63
2023-03-26T22:33:54.280Z,3.47
2023-03-26T22:36:23.156Z,4.00
2023-03-26T22:38:53.865Z,1.53
2023-03-26T22:41:21.716Z,3.37
2023-03-26T22:43:52.001Z,3.53
2023-03-26T22:46:19.449Z,5.43
2023-03-26T22:48:48.249Z,4.13
2023-03-26T22:51:15.533Z,2.93
2023-03-26T22:53:43.482Z,3.23
2023-03-26T22:56:11.812Z,5.43
2023-03-26T22:58:38.559Z,4.60
2023-03-26T23:01:17.919Z,3.97
2023-03-26T23:03:44.936Z,1.63
2023-03-26T23:06:12.086Z,2.57
2023-03-26T23:08:40.518Z,4.63
2023-03-26T23:11:15.440Z,2.63
2023-03-26T23:13:43.401Z,5.63
2023-03-26T23:16:11.564Z,2.50
2023-03-26T23:18:39.237Z,6.07
2023-03-26T23:21:12.157Z,3.77
2023-03-26T23:23:39.735Z,2.17
2023-03-26T23:26:07.058Z,3.67
2023-03-26T23:28:35.024Z,7.57
2023-03-26T23:31:05.000Z,8.30
2023-03-26T23:33:35.324Z,7.50
2023-03-26T23:36:07.541Z,2.93
2023-03-26T23:38:44.126Z,1.60
2023-03-26T23:41:15.809Z,3.93
2023-03-26T23:43:53.537Z,6.53
2023-03-26T23:46:23.911Z,3.47
2023-03-26T23:48:51.702Z,1.60
2023-03-26T23:51:22.346Z,5.07
2023-03-26T23:53:49.600Z,4.97
2023-03-26T23:56:17.013Z,4.07
2023-03-26T23:58:43.818Z,4.53
